Etusivu
METAR-TAF:

METAR-TAF

Lentoasemat :

Door County Cherryland Airport

Sturgeon Bay, Wisconsin, Yhdysvallat

Leveyspiiri: 44-51N, Pituuspiiri: 087-25W, korkeus merenpinnasta: 221 m

Tämänhetkinen sää

Tämä raportti tehtiin 23 minuuttia sitten, kello 01.56 UTC
Tuuli 8 kn etelästä/lounaasta
Lämpötila -7°C
Kosteus 86%
Ilmanpaine 1016 hPa
Näkyvyys: 14.5 km
Hajonneita pilviä 2400 ft:n korkeudessa
Pilvistä 2900 ft:n korkeudessa
heikkoa lumisadetta

METAR: KSUE 140156Z AUTO 20008KT 9SM -SN BKN024 OVC029 M07/M09 A3001 RMK AO2 SLP173 P0000 T10721089 FZRANO $

Aika: 20:19 (02:19 UTC)


TAF: puuttuu

Säähavainnot ja -ennusteet yli 4000 lentoasemalta (METAR- ja TAF-raportit).

Käytössä olevat sääasemat on merkitty karttaan keltaisilla ja punaisilla pisteillä.

Aseta hiiri pisteen päälle nähdäksesi sääaseman nimen.

Klikkaa sitten nähdäksesi säähavainnot ja -ennusteet.

Kartan vaihtaminen: klikkaa mustalla rastilla varustettuja vihreitä pisteitä, niin voit zoomata sisään; viivalla varustettua vihreää pistettä, niin voit zoomata ulos tai vihreitä nuolia, niin pääset viereisille kartoille.


METAR-TAF: